Terminal Aerodrome Forecast
Issued by NWS

Home | Current Version | Previous Version | Graphics & Text | Print | Product List | Glossary Off
Versions: 1 2 3 4 5 6 7 8 9 10 11 12 13 14 15 16 17 18 19 20 21 22 23 24

000
FTUS43 KDDC 150536
TAFGCK
TAF
KGCK 150536Z 1506/1606 31023G30KT P6SM OVC006
     FM150900 31023G30KT P6SM OVC020
     FM151600 32027G35KT P6SM BKN035
     FM160000 32021G30KT P6SM SCT035=

USA.gov is the U.S. government's official web portal to all federal, state and local government web resources and services.